sensor_id;sensor_type;location;lat;lon;timestamp;temperature;humidity
2202;DHT22;1107;48.654;9.250;2023-03-01T00:02:09;-0.50;1.00
2202;DHT22;1107;48.654;9.250;2023-03-01T00:04:36;-0.50;1.00
2202;DHT22;1107;48.654;9.250;2023-03-01T00:07:03;-0.40;1.00
2202;DHT22;1107;48.654;9.250;2023-03-01T00:09:30;-0.40;1.00
2202;DHT22;1107;48.654;9.250;2023-03-01T00:11:57;-0.40;1.00
2202;DHT22;1107;48.654;9.250;2023-03-01T00:14:25;-0.40;1.00
2202;DHT22;1107;48.654;9.250;2023-03-01T00:16:52;-0.40;1.00
2202;DHT22;1107;48.654;9.250;2023-03-01T00:19:20;-0.40;1.00
2202;DHT22;1107;48.654;9.250;2023-03-01T00:21:47;-0.40;1.00
2202;DHT22;1107;48.654;9.250;2023-03-01T00:24:15;-0.40;1.00
2202;DHT22;1107;48.654;9.250;2023-03-01T00:26:42;-0.40;1.00
2202;DHT22;1107;48.654;9.250;2023-03-01T00:29:09;-0.50;1.00
2202;DHT22;1107;48.654;9.250;2023-03-01T00:31:37;-0.50;1.00
2202;DHT22;1107;48.654;9.250;2023-03-01T00:34:05;-0.50;1.00
2202;DHT22;1107;48.654;9.250;2023-03-01T00:36:33;-0.50;1.00
2202;DHT22;1107;48.654;9.250;2023-03-01T00:39:01;-0.50;1.00
2202;DHT22;1107;48.654;9.250;2023-03-01T00:41:29;-0.50;1.00
2202;DHT22;1107;48.654;9.250;2023-03-01T00:43:56;-0.50;1.00
2202;DHT22;1107;48.654;9.250;2023-03-01T00:46:25;-0.50;1.00
2202;DHT22;1107;48.654;9.250;2023-03-01T00:48:54;-0.50;1.00
2202;DHT22;1107;48.654;9.250;2023-03-01T00:51:22;-0.50;1.00
2202;DHT22;1107;48.654;9.250;2023-03-01T00:53:50;-0.50;1.00
2202;DHT22;1107;48.654;9.250;2023-03-01T00:56:18;-0.50;1.00
2202;DHT22;1107;48.654;9.250;2023-03-01T00:58:45;-0.50;1.00
2202;DHT22;1107;48.654;9.250;2023-03-01T01:01:14;-0.60;1.00
2202;DHT22;1107;48.654;9.250;2023-03-01T01:03:45;-0.60;1.00
2202;DHT22;1107;48.654;9.250;2023-03-01T01:06:19;-0.70;25.10
2202;DHT22;1107;48.654;9.250;2023-03-01T01:08:46;-0.70;99.90
2202;DHT22;1107;48.654;9.250;2023-03-01T01:11:14;-0.80;99.90
2202;DHT22;1107;48.654;9.250;2023-03-01T01:13:41;-0.90;99.90
2202;DHT22;1107;48.654;9.250;2023-03-01T01:16:10;-0.90;99.90
2202;DHT22;1107;48.654;9.250;2023-03-01T01:18:37;-0.90;99.90
2202;DHT22;1107;48.654;9.250;2023-03-01T01:21:05;-1.00;99.90
2202;DHT22;1107;48.654;9.250;2023-03-01T01:23:34;-0.90;99.90
2202;DHT22;1107;48.654;9.250;2023-03-01T01:26:05;-1.00;99.90
2202;DHT22;1107;48.654;9.250;2023-03-01T01:28:33;-1.10;1.00
2202;DHT22;1107;48.654;9.250;2023-03-01T01:31:00;-1.10;1.00
2202;DHT22;1107;48.654;9.250;2023-03-01T01:33:27;-1.10;1.00
2202;DHT22;1107;48.654;9.250;2023-03-01T01:35:54;-1.10;1.00
2202;DHT22;1107;48.654;9.250;2023-03-01T01:38:21;-1.10;1.00
2202;DHT22;1107;48.654;9.250;2023-03-01T01:40:51;-1.10;1.00
2202;DHT22;1107;48.654;9.250;2023-03-01T01:43:22;-1.00;1.00
2202;DHT22;1107;48.654;9.250;2023-03-01T01:45:50;-0.90;1.00
2202;DHT22;1107;48.654;9.250;2023-03-01T01:48:20;-0.70;1.00
2202;DHT22;1107;48.654;9.250;2023-03-01T01:50:53;-0.70;1.00
2202;DHT22;1107;48.654;9.250;2023-03-01T01:53:22;-0.60;99.90
2202;DHT22;1107;48.654;9.250;2023-03-01T01:55:54;-0.50;99.90
2202;DHT22;1107;48.654;9.250;2023-03-01T01:58:24;-0.50;99.90
2202;DHT22;1107;48.654;9.250;2023-03-01T02:00:53;-0.40;99.90
2202;DHT22;1107;48.654;9.250;2023-03-01T02:03:24;-0.40;99.90
2202;DHT22;1107;48.654;9.250;2023-03-01T02:05:57;-0.40;99.90
2202;DHT22;1107;48.654;9.250;2023-03-01T02:08:28;-0.30;99.90
2202;DHT22;1107;48.654;9.250;2023-03-01T02:10:58;-0.30;58.90
2202;DHT22;1107;48.654;9.250;2023-03-01T02:13:26;-0.20;32.30
2202;DHT22;1107;48.654;9.250;2023-03-01T02:15:54;-0.20;21.70
2202;DHT22;1107;48.654;9.250;2023-03-01T02:18:23;-0.20;47.40
2202;DHT22;1107;48.654;9.250;2023-03-01T02:21:08;-0.20;54.80
2202;DHT22;1107;48.654;9.250;2023-03-01T02:23:40;-0.10;53.50
2202;DHT22;1107;48.654;9.250;2023-03-01T02:26:11;-0.10;86.00
2202;DHT22;1107;48.654;9.250;2023-03-01T02:28:44;-0.10;66.70
2202;DHT22;1107;48.654;9.250;2023-03-01T02:31:14;-0.20;39.90
2202;DHT22;1107;48.654;9.250;2023-03-01T02:34:02;-0.10;29.70
2202;DHT22;1107;48.654;9.250;2023-03-01T02:36:34;-0.10;1.00
2202;DHT22;1107;48.654;9.250;2023-03-01T02:39:03;0.00;7.20
2202;DHT22;1107;48.654;9.250;2023-03-01T02:41:34;0.00;11.20
2202;DHT22;1107;48.654;9.250;2023-03-01T02:44:04;0.00;31.20
2202;DHT22;1107;48.654;9.250;2023-03-01T02:46:31;0.00;45.10
2202;DHT22;1107;48.654;9.250;2023-03-01T02:48:58;0.00;2.40
2202;DHT22;1107;48.654;9.250;2023-03-01T02:51:38;0.00;1.00
2202;DHT22;1107;48.654;9.250;2023-03-01T02:54:15;0.00;1.00
2202;DHT22;1107;48.654;9.250;2023-03-01T02:56:45;0.10;1.00
2202;DHT22;1107;48.654;9.250;2023-03-01T02:59:15;0.10;1.00
2202;DHT22;1107;48.654;9.250;2023-03-01T03:01:43;0.10;1.00
2202;DHT22;1107;48.654;9.250;2023-03-01T03:04:11;0.10;1.00
2202;DHT22;1107;48.654;9.250;2023-03-01T03:06:43;0.10;1.00
2202;DHT22;1107;48.654;9.250;2023-03-01T03:09:10;0.10;1.00
2202;DHT22;1107;48.654;9.250;2023-03-01T03:11:37;0.20;1.00
2202;DHT22;1107;48.654;9.250;2023-03-01T03:14:04;0.20;1.00
2202;DHT22;1107;48.654;9.250;2023-03-01T03:16:40;0.20;1.00
2202;DHT22;1107;48.654;9.250;2023-03-01T03:19:07;0.20;1.00
2202;DHT22;1107;48.654;9.250;2023-03-01T03:21:34;0.20;1.00
2202;DHT22;1107;48.654;9.250;2023-03-01T03:24:01;0.20;1.00
2202;DHT22;1107;48.654;9.250;2023-03-01T03:26:28;0.30;1.00
2202;DHT22;1107;48.654;9.250;2023-03-01T03:28:55;0.20;1.00
2202;DHT22;1107;48.654;9.250;2023-03-01T03:31:23;0.30;1.00
2202;DHT22;1107;48.654;9.250;2023-03-01T03:33:51;0.20;1.00
2202;DHT22;1107;48.654;9.250;2023-03-01T03:36:21;0.30;1.00
2202;DHT22;1107;48.654;9.250;2023-03-01T03:38:48;0.20;1.00
2202;DHT22;1107;48.654;9.250;2023-03-01T03:41:16;0.20;1.00
2202;DHT22;1107;48.654;9.250;2023-03-01T03:43:43;0.30;1.00
2202;DHT22;1107;48.654;9.250;2023-03-01T03:46:11;0.30;1.00
2202;DHT22;1107;48.654;9.250;2023-03-01T03:48:39;0.20;1.00
2202;DHT22;1107;48.654;9.250;2023-03-01T03:51:10;0.20;1.00
2202;DHT22;1107;48.654;9.250;2023-03-01T03:53:37;0.40;1.00
2202;DHT22;1107;48.654;9.250;2023-03-01T03:56:05;0.30;1.00
2202;DHT22;1107;48.654;9.250;2023-03-01T03:58:32;0.20;1.00
2202;DHT22;1107;48.654;9.250;2023-03-01T04:01:00;0.20;1.00
2202;DHT22;1107;48.654;9.250;2023-03-01T04:03:28;0.30;1.00
2202;DHT22;1107;48.654;9.250;2023-03-01T04:05:57;0.40;1.00
2202;DHT22;1107;48.654;9.250;2023-03-01T04:08:27;0.30;1.00
2202;DHT22;1107;48.654;9.250;2023-03-01T04:10:58;0.30;1.00
2202;DHT22;1107;48.654;9.250;2023-03-01T04:13:26;0.30;1.00
2202;DHT22;1107;48.654;9.250;2023-03-01T04:15:54;0.30;1.00
2202;DHT22;1107;48.654;9.250;2023-03-01T04:18:23;0.30;15.80
2202;DHT22;1107;48.654;9.250;2023-03-01T04:20:50;0.30;1.00
2202;DHT22;1107;48.654;9.250;2023-03-01T04:23:21;0.30;27.40
2202;DHT22;1107;48.654;9.250;2023-03-01T04:25:52;0.30;55.20
2202;DHT22;1107;48.654;9.250;2023-03-01T04:28:21;0.30;42.70
2202;DHT22;1107;48.654;9.250;2023-03-01T04:30:49;0.30;75.60
2202;DHT22;1107;48.654;9.250;2023-03-01T04:33:17;0.30;97.00
2202;DHT22;1107;48.654;9.250;2023-03-01T04:35:45;0.50;80.50
2202;DHT22;1107;48.654;9.250;2023-03-01T04:38:14;0.40;28.90
2202;DHT22;1107;48.654;9.250;2023-03-01T04:40:41;0.40;82.00
2202;DHT22;1107;48.654;9.250;2023-03-01T04:43:11;0.30;87.10
2202;DHT22;1107;48.654;9.250;2023-03-01T04:45:39;0.30;99.90
2202;DHT22;1107;48.654;9.250;2023-03-01T04:48:07;0.30;99.90
2202;DHT22;1107;48.654;9.250;2023-03-01T04:50:34;0.30;99.90
2202;DHT22;1107;48.654;9.250;2023-03-01T04:53:01;0.40;99.90
2202;DHT22;1107;48.654;9.250;2023-03-01T04:55:29;0.30;99.90
2202;DHT22;1107;48.654;9.250;2023-03-01T04:57:56;0.40;99.90
2202;DHT22;1107;48.654;9.250;2023-03-01T05:00:25;0.40;99.90
2202;DHT22;1107;48.654;9.250;2023-03-01T05:02:53;0.40;99.90
2202;DHT22;1107;48.654;9.250;2023-03-01T05:05:24;0.40;99.90
2202;DHT22;1107;48.654;9.250;2023-03-01T05:07:55;0.40;99.90
2202;DHT22;1107;48.654;9.250;2023-03-01T05:10:23;0.30;99.90
2202;DHT22;1107;48.654;9.250;2023-03-01T05:12:51;0.40;99.90
2202;DHT22;1107;48.654;9.250;2023-03-01T05:15:19;0.30;99.90
2202;DHT22;1107;48.654;9.250;2023-03-01T05:17:48;0.40;99.90
2202;DHT22;1107;48.654;9.250;2023-03-01T05:20:15;0.40;99.90
2202;DHT22;1107;48.654;9.250;2023-03-01T05:22:42;0.40;99.90
2202;DHT22;1107;48.654;9.250;2023-03-01T05:25:10;0.40;99.90
2202;DHT22;1107;48.654;9.250;2023-03-01T05:27:39;0.40;99.90
2202;DHT22;1107;48.654;9.250;2023-03-01T05:30:07;0.40;99.90
2202;DHT22;1107;48.654;9.250;2023-03-01T05:32:44;0.40;99.90
2202;DHT22;1107;48.654;9.250;2023-03-01T05:35:14;0.40;99.90
2202;DHT22;1107;48.654;9.250;2023-03-01T05:37:42;0.40;99.90
2202;DHT22;1107;48.654;9.250;2023-03-01T05:40:11;0.40;99.90
2202;DHT22;1107;48.654;9.250;2023-03-01T05:42:46;0.40;99.90
2202;DHT22;1107;48.654;9.250;2023-03-01T05:45:14;0.40;99.90
2202;DHT22;1107;48.654;9.250;2023-03-01T05:47:43;0.40;99.90
2202;DHT22;1107;48.654;9.250;2023-03-01T05:50:14;0.40;99.90
2202;DHT22;1107;48.654;9.250;2023-03-01T05:52:45;0.50;99.90
2202;DHT22;1107;48.654;9.250;2023-03-01T05:55:14;0.50;99.90
2202;DHT22;1107;48.654;9.250;2023-03-01T05:57:41;0.50;99.90
2202;DHT22;1107;48.654;9.250;2023-03-01T06:00:09;0.50;99.90
2202;DHT22;1107;48.654;9.250;2023-03-01T06:02:37;0.50;95.60
2202;DHT22;1107;48.654;9.250;2023-03-01T06:05:05;0.50;91.00
2202;DHT22;1107;48.654;9.250;2023-03-01T06:07:33;0.50;87.80
2202;DHT22;1107;48.654;9.250;2023-03-01T06:10:01;0.50;81.60
2202;DHT22;1107;48.654;9.250;2023-03-01T06:12:30;0.50;99.90
2202;DHT22;1107;48.654;9.250;2023-03-01T06:14:57;0.60;99.90
2202;DHT22;1107;48.654;9.250;2023-03-01T06:17:24;0.60;99.90
2202;DHT22;1107;48.654;9.250;2023-03-01T06:19:51;0.60;99.90
2202;DHT22;1107;48.654;9.250;2023-03-01T06:22:18;0.60;37.30
2202;DHT22;1107;48.654;9.250;2023-03-01T06:24:46;0.70;37.40
2202;DHT22;1107;48.654;9.250;2023-03-01T06:27:13;0.70;27.50
2202;DHT22;1107;48.654;9.250;2023-03-01T06:29:40;0.70;34.00
2202;DHT22;1107;48.654;9.250;2023-03-01T06:32:07;0.70;37.90
2202;DHT22;1107;48.654;9.250;2023-03-01T06:34:34;0.80;6.10
2202;DHT22;1107;48.654;9.250;2023-03-01T06:37:01;1.00;1.00
2202;DHT22;1107;48.654;9.250;2023-03-01T06:39:30;1.20;1.00
2202;DHT22;1107;48.654;9.250;2023-03-01T06:41:59;1.40;1.00
2202;DHT22;1107;48.654;9.250;2023-03-01T06:44:26;1.50;1.00
2202;DHT22;1107;48.654;9.250;2023-03-01T06:46:53;1.70;1.00
2202;DHT22;1107;48.654;9.250;2023-03-01T06:49:21;1.80;1.00
2202;DHT22;1107;48.654;9.250;2023-03-01T06:51:47;2.00;1.00
2202;DHT22;1107;48.654;9.250;2023-03-01T06:54:14;2.00;1.00
2202;DHT22;1107;48.654;9.250;2023-03-01T06:56:43;2.30;1.00
2202;DHT22;1107;48.654;9.250;2023-03-01T06:59:14;2.60;1.00
2202;DHT22;1107;48.654;9.250;2023-03-01T07:01:41;2.80;1.00
2202;DHT22;1107;48.654;9.250;2023-03-01T07:04:08;2.90;1.00
2202;DHT22;1107;48.654;9.250;2023-03-01T07:06:35;3.10;1.00
2202;DHT22;1107;48.654;9.250;2023-03-01T07:09:02;3.20;1.00
2202;DHT22;1107;48.654;9.250;2023-03-01T07:11:29;3.40;1.00
2202;DHT22;1107;48.654;9.250;2023-03-01T07:13:56;3.70;1.00
2202;DHT22;1107;48.654;9.250;2023-03-01T07:16:25;3.90;99.90
2202;DHT22;1107;48.654;9.250;2023-03-01T07:18:52;4.20;99.90
2202;DHT22;1107;48.654;9.250;2023-03-01T07:21:19;4.30;99.90
2202;DHT22;1107;48.654;9.250;2023-03-01T07:23:47;4.40;99.90
2202;DHT22;1107;48.654;9.250;2023-03-01T07:26:14;4.40;99.90
2202;DHT22;1107;48.654;9.250;2023-03-01T07:28:41;4.50;99.90
2202;DHT22;1107;48.654;9.250;2023-03-01T07:31:08;4.80;99.90
2202;DHT22;1107;48.654;9.250;2023-03-01T07:33:36;4.90;99.90
2202;DHT22;1107;48.654;9.250;2023-03-01T07:36:04;5.00;99.90
2202;DHT22;1107;48.654;9.250;2023-03-01T07:38:31;5.30;99.90
2202;DHT22;1107;48.654;9.250;2023-03-01T07:40:59;5.40;99.90
2202;DHT22;1107;48.654;9.250;2023-03-01T07:43:27;5.70;99.90
2202;DHT22;1107;48.654;9.250;2023-03-01T07:45:54;6.20;99.90
2202;DHT22;1107;48.654;9.250;2023-03-01T07:48:21;6.50;99.90
2202;DHT22;1107;48.654;9.250;2023-03-01T07:50:49;6.80;99.90
2202;DHT22;1107;48.654;9.250;2023-03-01T07:53:16;7.10;99.90
2202;DHT22;1107;48.654;9.250;2023-03-01T07:55:43;7.30;99.90
2202;DHT22;1107;48.654;9.250;2023-03-01T07:58:10;7.30;99.90
2202;DHT22;1107;48.654;9.250;2023-03-01T08:00:37;7.60;99.90
2202;DHT22;1107;48.654;9.250;2023-03-01T08:03:04;7.90;99.90
2202;DHT22;1107;48.654;9.250;2023-03-01T08:05:32;8.10;99.90
2202;DHT22;1107;48.654;9.250;2023-03-01T08:08:00;8.40;99.90
2202;DHT22;1107;48.654;9.250;2023-03-01T08:10:27;8.60;99.90
2202;DHT22;1107;48.654;9.250;2023-03-01T08:12:53;8.90;99.90
2202;DHT22;1107;48.654;9.250;2023-03-01T08:15:20;9.10;99.90
2202;DHT22;1107;48.654;9.250;2023-03-01T08:17:49;9.10;99.90
2202;DHT22;1107;48.654;9.250;2023-03-01T08:20:16;9.50;99.90
2202;DHT22;1107;48.654;9.250;2023-03-01T08:22:43;9.90;99.90
2202;DHT22;1107;48.654;9.250;2023-03-01T08:25:11;10.30;99.90
2202;DHT22;1107;48.654;9.250;2023-03-01T08:27:38;10.60;99.90
2202;DHT22;1107;48.654;9.250;2023-03-01T08:30:06;10.70;99.90
2202;DHT22;1107;48.654;9.250;2023-03-01T08:32:36;11.10;99.90
2202;DHT22;1107;48.654;9.250;2023-03-01T08:35:04;11.30;99.90
2202;DHT22;1107;48.654;9.250;2023-03-01T08:37:31;11.40;99.90
2202;DHT22;1107;48.654;9.250;2023-03-01T08:39:59;11.50;98.10
2202;DHT22;1107;48.654;9.250;2023-03-01T08:42:27;11.50;94.90
2202;DHT22;1107;48.654;9.250;2023-03-01T08:44:54;11.80;94.20
2202;DHT22;1107;48.654;9.250;2023-03-01T08:47:22;11.60;89.10
2202;DHT22;1107;48.654;9.250;2023-03-01T08:49:49;11.30;80.60
2202;DHT22;1107;48.654;9.250;2023-03-01T08:52:17;11.50;81.00
2202;DHT22;1107;48.654;9.250;2023-03-01T08:54:43;11.50;77.00
2202;DHT22;1107;48.654;9.250;2023-03-01T08:57:10;11.20;70.10
2202;DHT22;1107;48.654;9.250;2023-03-01T08:59:39;11.20;69.50
2202;DHT22;1107;48.654;9.250;2023-03-01T09:02:12;11.50;71.00
2202;DHT22;1107;48.654;9.250;2023-03-01T09:04:39;11.80;71.50
2202;DHT22;1107;48.654;9.250;2023-03-01T09:07:07;11.60;65.10
2202;DHT22;1107;48.654;9.250;2023-03-01T09:09:35;11.50;59.50
2202;DHT22;1107;48.654;9.250;2023-03-01T09:12:03;11.20;57.50
2202;DHT22;1107;48.654;9.250;2023-03-01T09:14:30;11.40;86.30
2202;DHT22;1107;48.654;9.250;2023-03-01T09:16:58;11.90;58.90
2202;DHT22;1107;48.654;9.250;2023-03-01T09:19:28;12.00;58.10
2202;DHT22;1107;48.654;9.250;2023-03-01T09:21:55;12.40;56.60
2202;DHT22;1107;48.654;9.250;2023-03-01T09:24:24;12.20;54.10
2202;DHT22;1107;48.654;9.250;2023-03-01T09:26:53;12.10;51.50
2202;DHT22;1107;48.654;9.250;2023-03-01T09:29:22;12.40;51.20
2202;DHT22;1107;48.654;9.250;2023-03-01T09:31:49;12.30;50.70
2202;DHT22;1107;48.654;9.250;2023-03-01T09:34:17;12.80;50.40
2202;DHT22;1107;48.654;9.250;2023-03-01T09:36:48;13.10;51.40
2202;DHT22;1107;48.654;9.250;2023-03-01T09:39:16;12.90;47.00
2202;DHT22;1107;48.654;9.250;2023-03-01T09:41:47;12.60;44.80
2202;DHT22;1107;48.654;9.250;2023-03-01T09:44:24;12.00;40.70
2202;DHT22;1107;48.654;9.250;2023-03-01T09:46:52;12.60;42.30
2202;DHT22;1107;48.654;9.250;2023-03-01T09:49:23;13.00;45.40
2202;DHT22;1107;48.654;9.250;2023-03-01T09:51:58;12.60;42.60
2202;DHT22;1107;48.654;9.250;2023-03-01T09:54:26;12.10;37.30
2202;DHT22;1107;48.654;9.250;2023-03-01T09:57:14;12.10;36.10
2202;DHT22;1107;48.654;9.250;2023-03-01T09:59:55;12.90;40.20
2202;DHT22;1107;48.654;9.250;2023-03-01T10:02:28;13.50;41.00
2202;DHT22;1107;48.654;9.250;2023-03-01T10:05:05;13.50;40.70
2202;DHT22;1107;48.654;9.250;2023-03-01T10:07:43;13.90;39.80
2202;DHT22;1107;48.654;9.250;2023-03-01T10:10:20;14.60;40.60
2202;DHT22;1107;48.654;9.250;2023-03-01T10:12:48;15.10;42.00
2202;DHT22;1107;48.654;9.250;2023-03-01T10:15:19;15.40;40.30
2202;DHT22;1107;48.654;9.250;2023-03-01T10:17:51;16.30;42.40
2202;DHT22;1107;48.654;9.250;2023-03-01T10:20:25;16.70;43.10
2202;DHT22;1107;48.654;9.250;2023-03-01T10:22:52;16.70;41.80
2202;DHT22;1107;48.654;9.250;2023-03-01T10:25:29;17.00;39.30
2202;DHT22;1107;48.654;9.250;2023-03-01T10:28:02;16.70;33.90
2202;DHT22;1107;48.654;9.250;2023-03-01T10:30:35;16.80;32.10
2202;DHT22;1107;48.654;9.250;2023-03-01T10:33:08;17.00;32.90
2202;DHT22;1107;48.654;9.250;2023-03-01T10:35:41;17.10;31.80
2202;DHT22;1107;48.654;9.250;2023-03-01T10:38:10;17.70;32.30
2202;DHT22;1107;48.654;9.250;2023-03-01T10:40:51;18.00;32.80
2202;DHT22;1107;48.654;9.250;2023-03-01T10:43:19;17.60;29.40
2202;DHT22;1107;48.654;9.250;2023-03-01T10:45:47;17.30;26.40
2202;DHT22;1107;48.654;9.250;2023-03-01T10:48:15;18.00;27.60
2202;DHT22;1107;48.654;9.250;2023-03-01T10:50:45;17.60;25.70
2202;DHT22;1107;48.654;9.250;2023-03-01T10:53:22;18.00;25.20
2202;DHT22;1107;48.654;9.250;2023-03-01T10:56:03;18.00;23.80
2202;DHT22;1107;48.654;9.250;2023-03-01T10:58:31;17.80;23.60
2202;DHT22;1107;48.654;9.250;2023-03-01T11:01:00;17.90;22.40
2202;DHT22;1107;48.654;9.250;2023-03-01T11:03:29;17.70;20.30
2202;DHT22;1107;48.654;9.250;2023-03-01T11:06:01;18.30;21.40
2202;DHT22;1107;48.654;9.250;2023-03-01T11:08:31;18.60;22.60
2202;DHT22;1107;48.654;9.250;2023-03-01T11:11:25;19.30;24.90
2202;DHT22;1107;48.654;9.250;2023-03-01T11:13:58;19.00;22.70
2202;DHT22;1107;48.654;9.250;2023-03-01T11:16:34;19.20;22.30
2202;DHT22;1107;48.654;9.250;2023-03-01T11:19:15;19.10;20.50
2202;DHT22;1107;48.654;9.250;2023-03-01T11:21:54;18.90;19.60
2202;DHT22;1107;48.654;9.250;2023-03-01T11:24:28;18.50;17.10
2202;DHT22;1107;48.654;9.250;2023-03-01T11:26:56;18.70;17.10
2202;DHT22;1107;48.654;9.250;2023-03-01T11:29:29;19.20;17.60
2202;DHT22;1107;48.654;9.250;2023-03-01T11:32:01;19.20;17.50
2202;DHT22;1107;48.654;9.250;2023-03-01T11:34:37;19.80;18.60
2202;DHT22;1107;48.654;9.250;2023-03-01T11:37:15;19.70;18.10
2202;DHT22;1107;48.654;9.250;2023-03-01T11:39:47;20.00;17.90
2202;DHT22;1107;48.654;9.250;2023-03-01T11:42:19;19.20;14.20
2202;DHT22;1107;48.654;9.250;2023-03-01T11:44:50;18.20;10.70
2202;DHT22;1107;48.654;9.250;2023-03-01T11:47:33;19.00;12.50
2202;DHT22;1107;48.654;9.250;2023-03-01T11:50:15;19.70;15.00
2202;DHT22;1107;48.654;9.250;2023-03-01T11:52:55;20.00;16.60
2202;DHT22;1107;48.654;9.250;2023-03-01T11:55:32;19.80;16.00
2202;DHT22;1107;48.654;9.250;2023-03-01T11:58:18;20.40;17.10
2202;DHT22;1107;48.654;9.250;2023-03-01T12:01:02;19.90;14.20
2202;DHT22;1107;48.654;9.250;2023-03-01T12:03:51;19.70;12.30
2202;DHT22;1107;48.654;9.250;2023-03-01T12:06:35;19.90;12.40
2202;DHT22;1107;48.654;9.250;2023-03-01T12:09:25;20.70;16.30
2202;DHT22;1107;48.654;9.250;2023-03-01T12:12:11;20.70;15.30
2202;DHT22;1107;48.654;9.250;2023-03-01T12:14:58;21.00;15.50
2202;DHT22;1107;48.654;9.250;2023-03-01T12:17:42;20.80;14.90
2202;DHT22;1107;48.654;9.250;2023-03-01T12:20:20;20.60;12.00
2202;DHT22;1107;48.654;9.250;2023-03-01T12:23:00;20.30;11.00
2202;DHT22;1107;48.654;9.250;2023-03-01T12:25:34;20.70;11.50
2202;DHT22;1107;48.654;9.250;2023-03-01T12:28:29;21.00;12.00
2202;DHT22;1107;48.654;9.250;2023-03-01T12:34:15;22.20;15.60
2202;DHT22;1107;48.654;9.250;2023-03-01T12:37:02;21.90;13.70
2202;DHT22;1107;48.654;9.250;2023-03-01T12:39:42;21.90;14.00
2202;DHT22;1107;48.654;9.250;2023-03-01T12:42:23;21.90;12.10
2202;DHT22;1107;48.654;9.250;2023-03-01T12:47:56;21.80;10.30
2202;DHT22;1107;48.654;9.250;2023-03-01T12:50:29;22.00;11.70
2202;DHT22;1107;48.654;9.250;2023-03-01T12:53:03;22.30;12.00
2202;DHT22;1107;48.654;9.250;2023-03-01T12:55:33;22.90;14.00
2202;DHT22;1107;48.654;9.250;2023-03-01T12:58:07;22.90;13.50
2202;DHT22;1107;48.654;9.250;2023-03-01T13:00:45;22.90;13.40
2202;DHT22;1107;48.654;9.250;2023-03-01T13:03:24;22.30;8.90
2202;DHT22;1107;48.654;9.250;2023-03-01T13:06:03;22.30;8.40
2202;DHT22;1107;48.654;9.250;2023-03-01T13:08:35;22.00;6.80
2202;DHT22;1107;48.654;9.250;2023-03-01T13:11:06;21.10;3.80
2202;DHT22;1107;48.654;9.250;2023-03-01T13:13:39;20.00;1.00
2202;DHT22;1107;48.654;9.250;2023-03-01T13:16:39;19.50;1.00
2202;DHT22;1107;48.654;9.250;2023-03-01T13:19:12;20.30;1.00
2202;DHT22;1107;48.654;9.250;2023-03-01T13:21:41;19.80;1.00
2202;DHT22;1107;48.654;9.250;2023-03-01T13:24:24;20.00;1.00
2202;DHT22;1107;48.654;9.250;2023-03-01T13:27:11;20.20;1.00
2202;DHT22;1107;48.654;9.250;2023-03-01T13:29:50;20.90;1.50
2202;DHT22;1107;48.654;9.250;2023-03-01T13:32:22;21.20;3.30
2202;DHT22;1107;48.654;9.250;2023-03-01T13:34:57;21.00;2.00
2202;DHT22;1107;48.654;9.250;2023-03-01T13:37:33;21.20;3.40
2202;DHT22;1107;48.654;9.250;2023-03-01T13:40:04;20.90;1.10
2202;DHT22;1107;48.654;9.250;2023-03-01T13:42:38;20.30;1.00
2202;DHT22;1107;48.654;9.250;2023-03-01T13:45:20;20.60;1.00
2202;DHT22;1107;48.654;9.250;2023-03-01T13:47:51;20.50;1.00
2202;DHT22;1107;48.654;9.250;2023-03-01T13:50:21;20.00;1.00
2202;DHT22;1107;48.654;9.250;2023-03-01T13:52:53;20.00;1.00
2202;DHT22;1107;48.654;9.250;2023-03-01T13:55:27;19.50;1.00
2202;DHT22;1107;48.654;9.250;2023-03-01T13:57:56;19.50;1.00
2202;DHT22;1107;48.654;9.250;2023-03-01T14:00:36;19.80;1.00
2202;DHT22;1107;48.654;9.250;2023-03-01T14:03:12;20.10;1.00
2202;DHT22;1107;48.654;9.250;2023-03-01T14:05:40;20.00;1.00
2202;DHT22;1107;48.654;9.250;2023-03-01T14:08:20;18.90;1.00
2202;DHT22;1107;48.654;9.250;2023-03-01T14:10:58;18.80;1.00
2202;DHT22;1107;48.654;9.250;2023-03-01T14:13:43;18.80;1.00
2202;DHT22;1107;48.654;9.250;2023-03-01T14:16:27;18.30;1.00
2202;DHT22;1107;48.654;9.250;2023-03-01T14:19:04;18.20;1.00
2202;DHT22;1107;48.654;9.250;2023-03-01T14:21:32;18.00;1.00
2202;DHT22;1107;48.654;9.250;2023-03-01T14:24:00;18.10;1.00
2202;DHT22;1107;48.654;9.250;2023-03-01T14:26:27;18.00;1.00
2202;DHT22;1107;48.654;9.250;2023-03-01T14:28:56;17.80;1.00
2202;DHT22;1107;48.654;9.250;2023-03-01T14:31:36;18.00;1.00
2202;DHT22;1107;48.654;9.250;2023-03-01T14:34:03;17.80;1.00
2202;DHT22;1107;48.654;9.250;2023-03-01T14:36:32;17.30;1.00
2202;DHT22;1107;48.654;9.250;2023-03-01T14:39:00;17.10;1.00
2202;DHT22;1107;48.654;9.250;2023-03-01T14:41:33;17.10;1.00
2202;DHT22;1107;48.654;9.250;2023-03-01T14:44:03;16.90;1.00
2202;DHT22;1107;48.654;9.250;2023-03-01T14:46:34;16.80;1.00
2202;DHT22;1107;48.654;9.250;2023-03-01T14:49:05;16.90;1.00
2202;DHT22;1107;48.654;9.250;2023-03-01T14:51:36;17.40;1.00
2202;DHT22;1107;48.654;9.250;2023-03-01T14:54:10;17.00;1.00
2202;DHT22;1107;48.654;9.250;2023-03-01T14:56:46;15.90;1.00
2202;DHT22;1107;48.654;9.250;2023-03-01T14:59:15;15.50;1.00
2202;DHT22;1107;48.654;9.250;2023-03-01T15:01:43;15.40;1.00
2202;DHT22;1107;48.654;9.250;2023-03-01T15:04:12;15.60;1.00
2202;DHT22;1107;48.654;9.250;2023-03-01T15:06:40;15.30;1.00
2202;DHT22;1107;48.654;9.250;2023-03-01T15:09:13;15.10;1.00
2202;DHT22;1107;48.654;9.250;2023-03-01T15:11:41;14.70;1.00
2202;DHT22;1107;48.654;9.250;2023-03-01T15:14:38;14.90;1.00
2202;DHT22;1107;48.654;9.250;2023-03-01T15:17:20;14.60;1.00
2202;DHT22;1107;48.654;9.250;2023-03-01T15:19:48;14.40;1.00
2202;DHT22;1107;48.654;9.250;2023-03-01T15:22:16;14.00;1.00
2202;DHT22;1107;48.654;9.250;2023-03-01T15:24:47;13.90;1.00
2202;DHT22;1107;48.654;9.250;2023-03-01T15:27:17;13.70;1.00
2202;DHT22;1107;48.654;9.250;2023-03-01T15:29:49;13.50;1.00
2202;DHT22;1107;48.654;9.250;2023-03-01T15:32:27;13.10;1.00
2202;DHT22;1107;48.654;9.250;2023-03-01T15:34:55;13.40;1.00
2202;DHT22;1107;48.654;9.250;2023-03-01T15:37:40;13.10;1.00
2202;DHT22;1107;48.654;9.250;2023-03-01T15:40:20;13.10;1.00
2202;DHT22;1107;48.654;9.250;2023-03-01T15:42:50;13.10;1.00
2202;DHT22;1107;48.654;9.250;2023-03-01T15:45:23;13.00;1.00
2202;DHT22;1107;48.654;9.250;2023-03-01T15:47:55;12.70;1.00
2202;DHT22;1107;48.654;9.250;2023-03-01T15:50:26;12.70;1.00
2202;DHT22;1107;48.654;9.250;2023-03-01T15:52:54;12.50;1.00
2202;DHT22;1107;48.654;9.250;2023-03-01T15:55:23;12.00;1.00
2202;DHT22;1107;48.654;9.250;2023-03-01T15:57:58;11.80;1.00
2202;DHT22;1107;48.654;9.250;2023-03-01T16:00:27;11.60;1.00
2202;DHT22;1107;48.654;9.250;2023-03-01T16:02:55;11.30;1.00
2202;DHT22;1107;48.654;9.250;2023-03-01T16:05:24;10.80;1.00
2202;DHT22;1107;48.654;9.250;2023-03-01T16:07:52;10.40;1.00
2202;DHT22;1107;48.654;9.250;2023-03-01T16:10:20;10.00;1.00
2202;DHT22;1107;48.654;9.250;2023-03-01T16:12:48;9.60;1.00
2202;DHT22;1107;48.654;9.250;2023-03-01T16:15:17;9.10;1.00
2202;DHT22;1107;48.654;9.250;2023-03-01T16:17:45;8.80;1.00
2202;DHT22;1107;48.654;9.250;2023-03-01T16:20:14;8.50;1.00
2202;DHT22;1107;48.654;9.250;2023-03-01T16:22:41;8.30;1.00
2202;DHT22;1107;48.654;9.250;2023-03-01T16:25:09;8.20;1.00
2202;DHT22;1107;48.654;9.250;2023-03-01T16:27:36;8.00;1.00
2202;DHT22;1107;48.654;9.250;2023-03-01T16:30:04;7.90;1.00
2202;DHT22;1107;48.654;9.250;2023-03-01T16:32:31;7.70;1.00
2202;DHT22;1107;48.654;9.250;2023-03-01T16:34:58;7.60;1.00
2202;DHT22;1107;48.654;9.250;2023-03-01T16:37:26;7.50;1.00
2202;DHT22;1107;48.654;9.250;2023-03-01T16:39:53;7.50;1.00
2202;DHT22;1107;48.654;9.250;2023-03-01T16:42:20;7.40;1.00
2202;DHT22;1107;48.654;9.250;2023-03-01T16:44:47;7.30;1.00